Time;durP1;ratioP1;P1;durP2;ratioP2;P2;SDS_P1;SDS_P2;PMS_P1;PMS_P2;Temp;Humidity;BMP_temperature;BMP_pressure;BME280_temperature;BME280_humidity;BME280_pressure;Samples;Min_cycle;Max_cycle;Signal;HPM_P1;HPM_P2
2022/03/11 00:00:01;;;;;;;15.48;10.02;;;4.90;90.20;;;;;;5093961;28;20032;-74
2022/03/11 00:02:26;;;;;;;15.43;9.80;;;4.80;90.20;;;;;;5093887;28;20036;-74
2022/03/11 00:04:52;;;;;;;16.48;11.43;;;4.70;91.30;;;;;;5094663;28;20458;-74
2022/03/11 00:07:17;;;;;;;18.60;10.55;;;4.70;90.80;;;;;;5093965;28;20061;-73
2022/03/11 00:09:44;;;;;;;17.13;10.63;;;4.70;91.80;;;;;;5095234;28;20502;-73
2022/03/11 00:12:10;;;;;;;15.70;10.40;;;4.70;91.40;;;;;;5093691;28;20039;-73
2022/03/11 00:14:36;;;;;;;15.50;10.68;;;4.70;91.50;;;;;;5094475;28;20118;-73
2022/03/11 00:17:02;;;;;;;13.32;10.00;;;4.80;92.20;;;;;;5093648;28;20046;-73
2022/03/11 00:19:29;;;;;;;14.57;10.60;;;4.80;91.80;;;;;;5094178;28;20031;-73
2022/03/11 00:21:55;;;;;;;15.93;10.63;;;4.80;91.70;;;;;;5110806;28;20035;-74
2022/03/11 00:24:22;;;;;;;17.20;10.27;;;4.90;91.70;;;;;;5105950;28;20041;-73
2022/03/11 00:26:47;;;;;;;15.32;10.23;;;4.90;91.30;;;;;;5111623;28;20515;-73
2022/03/11 00:29:14;;;;;;;19.92;10.65;;;5.00;91.50;;;;;;5094339;28;20099;-75
2022/03/11 00:31:39;;;;;;;18.13;11.35;;;5.00;90.80;;;;;;5094099;28;20032;-75
2022/03/11 00:34:05;;;;;;;14.13;9.95;;;5.00;91.40;;;;;;5103564;28;20489;-75
2022/03/11 00:36:34;;;;;;;13.93;10.25;;;4.90;90.70;;;;;;5099591;28;20043;-75
2022/03/11 00:38:59;;;;;;;13.82;10.25;;;4.90;91.30;;;;;;5099975;28;20035;-75
2022/03/11 00:41:25;;;;;;;13.63;8.30;;;5.00;91.50;;;;;;5114069;28;20047;-75
2022/03/11 00:43:52;;;;;;;16.02;9.82;;;4.90;91.60;;;;;;5104698;28;20127;-75
2022/03/11 00:46:18;;;;;;;15.10;9.80;;;5.00;91.00;;;;;;5110566;28;20047;-75
2022/03/11 00:48:44;;;;;;;15.43;10.95;;;4.90;91.10;;;;;;5109308;28;20050;-75
2022/03/11 00:51:09;;;;;;;15.15;10.63;;;4.90;91.30;;;;;;5106458;28;20087;-75
2022/03/11 00:53:35;;;;;;;14.77;10.75;;;4.80;91.30;;;;;;5107180;28;20417;-75
2022/03/11 00:56:01;;;;;;;14.85;9.77;;;4.80;92.00;;;;;;5093602;28;20043;-75
2022/03/11 00:58:27;;;;;;;14.77;10.10;;;4.90;91.80;;;;;;5093024;28;20040;-75
2022/03/11 01:00:52;;;;;;;14.07;9.38;;;4.90;91.80;;;;;;5093636;28;20043;-75
2022/03/11 01:03:18;;;;;;;14.05;9.80;;;5.00;91.90;;;;;;5097955;28;20509;-75
2022/03/11 01:05:46;;;;;;;18.23;10.05;;;5.00;91.60;;;;;;5093445;28;20084;-75
2022/03/11 01:08:12;;;;;;;14.07;9.65;;;5.00;91.30;;;;;;5093100;28;20071;-75
2022/03/11 01:10:38;;;;;;;13.30;9.48;;;5.00;91.50;;;;;;5111791;28;20124;-74
2022/03/11 01:13:06;;;;;;;14.40;9.10;;;5.00;91.50;;;;;;5095081;28;20126;-75
2022/03/11 01:15:32;;;;;;;13.60;9.23;;;5.00;91.40;;;;;;5113026;28;20084;-75
2022/03/11 01:17:58;;;;;;;14.52;9.40;;;5.00;92.00;;;;;;5113208;28;20047;-75
2022/03/11 01:20:23;;;;;;;13.80;9.70;;;5.00;91.90;;;;;;5130804;27;20122;-75
2022/03/11 01:22:49;;;;;;;13.50;8.00;;;5.10;92.10;;;;;;5103415;28;20481;-76
2022/03/11 01:25:15;;;;;;;15.00;9.35;;;5.20;92.10;;;;;;5131370;27;20031;-75
2022/03/11 01:27:41;;;;;;;14.85;10.15;;;5.00;91.70;;;;;;5116681;27;20125;-75
2022/03/11 01:30:09;;;;;;;13.73;8.48;;;5.10;91.80;;;;;;5117300;27;20070;-75
2022/03/11 01:32:36;;;;;;;13.85;9.05;;;5.10;91.90;;;;;;5117082;27;20039;-76
2022/03/11 01:35:02;;;;;;;14.30;9.73;;;5.00;92.00;;;;;;5098553;28;20043;-76
2022/03/11 01:37:28;;;;;;;13.25;8.82;;;5.00;92.00;;;;;;5108572;28;20586;-75
2022/03/11 01:39:53;;;;;;;12.65;8.52;;;4.90;93.00;;;;;;5096473;28;20043;-75
2022/03/11 01:42:19;;;;;;;15.07;9.27;;;4.90;92.50;;;;;;5097095;28;20043;-75
2022/03/11 01:44:45;;;;;;;12.25;8.60;;;4.90;92.90;;;;;;5112005;27;20035;-76
2022/03/11 01:47:11;;;;;;;14.68;9.77;;;4.90;93.40;;;;;;5116805;27;20039;-75
2022/03/11 01:49:36;;;;;;;12.55;8.50;;;4.90;93.40;;;;;;5099917;28;20047;-75
2022/03/11 01:52:03;;;;;;;13.63;8.60;;;4.80;93.40;;;;;;5096226;28;20036;-75
2022/03/11 01:54:28;;;;;;;12.50;8.90;;;4.80;93.70;;;;;;5114489;27;20050;-75
2022/03/11 01:56:54;;;;;;;13.95;8.50;;;4.80;93.90;;;;;;5116439;27;20043;-76
2022/03/11 01:59:20;;;;;;;13.15;9.48;;;4.70;94.50;;;;;;5116863;27;20046;-76
2022/03/11 02:01:46;;;;;;;13.10;9.35;;;4.70;94.20;;;;;;5130437;27;20054;-76
2022/03/11 02:04:12;;;;;;;13.80;9.48;;;4.70;95.30;;;;;;5108305;27;20486;-76
2022/03/11 02:06:38;;;;;;;15.48;8.68;;;4.70;95.50;;;;;;5096507;28;20044;-76
2022/03/11 02:09:04;;;;;;;14.18;10.18;;;4.60;96.00;;;;;;5095765;28;20038;-75
2022/03/11 02:11:30;;;;;;;14.93;9.75;;;4.60;96.00;;;;;;5113064;28;20512;-75
2022/03/11 02:13:58;;;;;;;13.45;9.38;;;4.60;96.30;;;;;;5125050;27;20043;-75
2022/03/11 02:16:26;;;;;;;16.02;10.05;;;4.60;96.60;;;;;;5115816;27;20027;-76
2022/03/11 02:18:53;;;;;;;14.95;9.52;;;4.60;97.30;;;;;;5108281;27;20047;-76
2022/03/11 02:21:21;;;;;;;14.05;10.13;;;4.60;97.40;;;;;;5116238;27;20050;-75
2022/03/11 02:23:59;;;;;;;15.25;9.38;;;4.50;97.40;;;;;;5104475;28;20101;-76
2022/03/11 02:26:29;;;;;;;15.20;10.65;;;4.50;97.70;;;;;;5095914;28;20122;-75
2022/03/11 02:28:58;;;;;;;15.25;10.15;;;4.50;98.20;;;;;;5131291;27;20423;-76
2022/03/11 02:31:27;;;;;;;16.70;10.68;;;4.40;98.30;;;;;;5116067;27;20035;-75
2022/03/11 02:33:52;;;;;;;14.57;9.52;;;4.40;98.10;;;;;;5120330;27;20043;-75
2022/03/11 02:36:18;;;;;;;14.88;9.32;;;4.40;99.00;;;;;;5095550;28;20490;-75
2022/03/11 02:38:44;;;;;;;14.80;9.77;;;4.30;99.50;;;;;;5095323;28;20044;-74
2022/03/11 02:41:13;;;;;;;18.92;11.23;;;4.40;99.60;;;;;;5101681;27;20398;-75
2022/03/11 02:43:41;;;;;;;13.95;9.10;;;4.40;99.50;;;;;;5105226;28;20040;-75
2022/03/11 02:46:08;;;;;;;16.13;11.18;;;4.40;99.90;;;;;;5109163;27;20041;-75
2022/03/11 02:48:34;;;;;;;14.20;9.98;;;4.40;99.90;;;;;;5115609;27;20050;-75
2022/03/11 02:51:00;;;;;;;15.65;10.07;;;4.40;99.90;;;;;;5115701;27;20055;-75
2022/03/11 02:53:26;;;;;;;16.85;10.38;;;4.40;99.90;;;;;;5130356;27;20042;-75
2022/03/11 02:55:52;;;;;;;15.32;10.07;;;4.30;99.90;;;;;;5113541;27;20047;-75
2022/03/11 02:58:18;;;;;;;14.30;9.43;;;4.40;99.90;;;;;;5104006;27;20527;-75
2022/03/11 03:00:43;;;;;;;16.52;10.18;;;4.30;99.90;;;;;;5115371;27;20122;-76
2022/03/11 03:03:09;;;;;;;14.48;9.88;;;4.30;99.90;;;;;;5109507;28;20115;-75
2022/03/11 03:05:35;;;;;;;15.48;9.73;;;4.30;99.90;;;;;;5113170;28;20042;-75
2022/03/11 03:08:01;;;;;;;15.10;9.18;;;4.30;99.90;;;;;;5108274;27;20031;-75
2022/03/11 03:10:26;;;;;;;16.40;10.43;;;4.30;99.90;;;;;;5115363;27;20039;-75
2022/03/11 03:12:52;;;;;;;16.50;9.82;;;4.30;99.90;;;;;;5111985;27;20050;-76
2022/03/11 03:15:18;;;;;;;13.90;8.90;;;4.30;99.90;;;;;;5112012;28;20131;-75
2022/03/11 03:17:44;;;;;;;16.80;10.13;;;4.30;99.90;;;;;;5111613;28;20404;-75
2022/03/11 03:20:10;;;;;;;16.42;11.45;;;4.20;99.90;;;;;;5111702;28;20038;-76
2022/03/11 03:22:36;;;;;;;16.60;10.05;;;4.20;99.90;;;;;;5122604;27;20034;-76
2022/03/11 03:25:03;;;;;;;15.82;9.30;;;4.10;99.90;;;;;;5094962;28;20046;-76
2022/03/11 03:27:30;;;;;;;18.73;11.05;;;4.10;99.90;;;;;;5111716;27;20066;-76
2022/03/11 03:29:56;;;;;;;15.55;10.10;;;4.10;99.90;;;;;;5094849;28;20385;-75
2022/03/11 03:32:22;;;;;;;15.35;9.65;;;4.00;99.90;;;;;;5094371;28;20051;-75
2022/03/11 03:34:47;;;;;;;15.98;9.80;;;4.00;99.90;;;;;;5112632;27;20062;-75
2022/03/11 03:37:13;;;;;;;17.45;10.25;;;4.00;99.90;;;;;;5113128;27;20043;-75
2022/03/11 03:39:41;;;;;;;16.45;11.52;;;3.90;99.90;;;;;;5131892;27;20122;-74
2022/03/11 03:42:10;;;;;;;15.25;10.98;;;3.90;99.90;;;;;;5131751;27;20562;-75
2022/03/11 03:44:35;;;;;;;19.52;11.48;;;4.00;99.90;;;;;;5114258;27;20035;-75
2022/03/11 03:47:01;;;;;;;17.02;11.15;;;3.80;99.90;;;;;;5111350;27;20043;-76
2022/03/11 03:49:28;;;;;;;15.52;11.18;;;3.80;99.90;;;;;;5114392;27;20046;-75
2022/03/11 03:51:54;;;;;;;18.48;11.10;;;3.80;99.90;;;;;;5114266;27;20078;-75
2022/03/11 03:54:20;;;;;;;18.55;11.48;;;3.70;99.90;;;;;;5099485;28;20046;-75
2022/03/11 03:56:46;;;;;;;16.15;10.60;;;3.60;99.90;;;;;;5093901;28;20039;-75
2022/03/11 03:59:13;;;;;;;18.77;11.63;;;3.60;99.90;;;;;;5098642;27;20035;-74
2022/03/11 04:01:41;;;;;;;17.23;10.82;;;3.60;99.90;;;;;;5097068;28;20056;-76
2022/03/11 04:04:08;;;;;;;15.82;10.90;;;3.60;99.90;;;;;;5105982;27;20516;-75
2022/03/11 04:06:37;;;;;;;17.30;12.35;;;3.50;99.90;;;;;;5131817;27;20393;-75
2022/03/11 04:09:07;;;;;;;19.30;12.65;;;3.60;99.90;;;;;;5116874;27;20031;-75
2022/03/11 04:11:33;;;;;;;19.55;12.13;;;3.50;99.90;;;;;;5117969;27;20073;-75
2022/03/11 04:14:00;;;;;;;17.98;10.93;;;3.50;99.90;;;;;;5110827;27;20043;-75
2022/03/11 04:16:26;;;;;;;17.85;11.93;;;3.50;99.90;;;;;;5116997;27;20506;-75
2022/03/11 04:18:53;;;;;;;16.23;10.77;;;3.70;99.90;;;;;;5116911;28;20043;-75
2022/03/11 04:21:19;;;;;;;17.90;10.98;;;3.60;99.90;;;;;;5117736;28;20035;-74
2022/03/11 04:23:47;;;;;;;16.63;11.77;;;3.60;99.90;;;;;;5124779;27;20047;-75
2022/03/11 04:26:13;;;;;;;20.60;11.43;;;3.70;99.90;;;;;;5101473;28;20042;-75
2022/03/11 04:28:39;;;;;;;17.77;11.75;;;3.60;99.90;;;;;;5117562;27;20079;-75
2022/03/11 04:31:07;;;;;;;17.88;11.50;;;3.60;99.90;;;;;;5096968;28;20039;-75
2022/03/11 04:33:33;;;;;;;19.65;11.88;;;3.50;99.90;;;;;;5104393;28;20522;-75
2022/03/11 04:35:59;;;;;;;19.20;11.40;;;3.60;99.90;;;;;;5115269;28;20548;-74
2022/03/11 04:38:25;;;;;;;21.60;12.75;;;3.50;99.90;;;;;;5096510;28;20134;-74
2022/03/11 04:40:50;;;;;;;19.10;12.35;;;3.50;99.90;;;;;;5098112;28;20044;-75
2022/03/11 04:43:16;;;;;;;17.02;12.68;;;3.40;99.90;;;;;;5111489;28;20063;-75
2022/03/11 04:45:42;;;;;;;20.33;12.93;;;3.50;99.90;;;;;;5096622;28;20032;-75
2022/03/11 04:48:08;;;;;;;18.83;11.95;;;3.40;99.90;;;;;;5096545;28;20050;-75
2022/03/11 04:50:33;;;;;;;19.05;12.63;;;3.40;99.90;;;;;;5128401;28;20050;-75
2022/03/11 04:52:59;;;;;;;19.08;12.68;;;3.40;99.90;;;;;;5114609;28;20035;-75
2022/03/11 04:55:25;;;;;;;17.88;12.38;;;3.40;99.90;;;;;;5096502;28;20565;-75
2022/03/11 04:57:50;;;;;;;17.58;11.93;;;3.40;99.90;;;;;;5096390;28;20122;-75
2022/03/11 05:00:16;;;;;;;17.95;12.35;;;3.40;99.90;;;;;;5099451;28;20062;-75
2022/03/11 05:02:45;;;;;;;17.77;12.80;;;3.30;99.90;;;;;;5109801;27;20031;-74
2022/03/11 05:05:14;;;;;;;13.73;9.20;;;3.30;99.90;;;;;;5120429;27;20043;-75
2022/03/11 05:07:40;;;;;;;18.25;11.70;;;3.40;99.90;;;;;;5120579;27;20090;-75
2022/03/11 05:10:08;;;;;;;18.65;12.43;;;3.30;99.90;;;;;;5120657;27;20043;-75
2022/03/11 05:12:35;;;;;;;19.65;12.30;;;3.30;99.90;;;;;;5119597;27;20532;-75
2022/03/11 05:15:02;;;;;;;18.27;11.77;;;3.30;99.90;;;;;;5120935;27;20046;-75
2022/03/11 05:17:28;;;;;;;20.23;13.35;;;3.30;99.90;;;;;;5100504;28;20100;-75
2022/03/11 05:19:54;;;;;;;23.33;14.35;;;3.30;99.90;;;;;;5100459;28;20043;-75
2022/03/11 05:22:20;;;;;;;24.40;14.90;;;3.20;99.90;;;;;;5118857;27;20042;-77
2022/03/11 05:24:46;;;;;;;19.23;13.90;;;3.10;99.90;;;;;;5109362;28;20448;-75
2022/03/11 05:27:12;;;;;;;23.52;14.55;;;3.10;99.90;;;;;;5116870;28;20054;-75
2022/03/11 05:29:39;;;;;;;23.02;13.60;;;3.00;99.90;;;;;;5099612;28;20048;-75
2022/03/11 05:32:06;;;;;;;18.98;11.93;;;3.00;99.90;;;;;;5113817;27;20050;-75
2022/03/11 05:34:34;;;;;;;20.88;13.25;;;2.90;99.90;;;;;;5119840;27;20504;-75
2022/03/11 05:37:00;;;;;;;24.92;14.73;;;3.00;99.90;;;;;;5120249;27;20062;-75
2022/03/11 05:39:25;;;;;;;23.65;13.00;;;3.00;99.90;;;;;;5136445;27;20494;-75
2022/03/11 05:41:51;;;;;;;21.30;13.48;;;3.00;99.90;;;;;;5120190;27;20043;-74
2022/03/11 05:44:18;;;;;;;21.40;13.80;;;2.90;99.90;;;;;;5119084;27;20040;-75
2022/03/11 05:46:47;;;;;;;23.83;14.00;;;3.00;99.90;;;;;;5099566;28;20447;-75
2022/03/11 05:49:13;;;;;;;27.15;14.05;;;2.90;99.90;;;;;;5102494;27;20039;-75
2022/03/11 05:51:39;;;;;;;21.60;14.38;;;2.90;99.90;;;;;;5121117;27;20035;-75
2022/03/11 05:54:05;;;;;;;24.77;15.07;;;2.90;99.90;;;;;;5118552;27;20038;-75
2022/03/11 05:56:32;;;;;;;22.95;13.45;;;2.90;99.90;;;;;;5137970;27;20095;-75
2022/03/11 05:58:57;;;;;;;23.27;15.20;;;2.90;99.90;;;;;;5120285;27;20039;-75
2022/03/11 06:01:23;;;;;;;24.05;14.27;;;2.90;99.90;;;;;;5120039;27;20038;-75
2022/03/11 06:03:49;;;;;;;19.17;12.20;;;2.90;99.90;;;;;;5114597;27;20047;-75
2022/03/11 06:06:15;;;;;;;24.27;13.80;;;2.90;99.90;;;;;;5136825;27;20393;-75
2022/03/11 06:08:41;;;;;;;23.40;15.18;;;2.90;99.90;;;;;;5118091;27;20062;-75
2022/03/11 06:11:08;;;;;;;22.27;14.50;;;2.90;99.90;;;;;;5137598;27;20064;-75
2022/03/11 06:13:35;;;;;;;24.88;15.85;;;2.90;99.90;;;;;;5108989;28;20126;-75
2022/03/11 06:16:01;;;;;;;22.05;13.48;;;2.90;99.90;;;;;;5099892;28;20047;-75
2022/03/11 06:18:26;;;;;;;24.23;14.57;;;2.80;99.90;;;;;;5104760;27;20043;-75
2022/03/11 06:20:52;;;;;;;24.08;14.73;;;2.70;99.90;;;;;;5103211;28;20031;-75
2022/03/11 06:23:18;;;;;;;24.27;15.23;;;2.70;99.90;;;;;;5127093;27;20047;-75
2022/03/11 06:25:43;;;;;;;24.05;13.65;;;2.70;99.90;;;;;;5120930;27;20035;-75
2022/03/11 06:28:09;;;;;;;23.50;14.48;;;2.80;99.90;;;;;;5120701;27;20063;-75
2022/03/11 06:30:37;;;;;;;22.25;14.98;;;2.80;99.90;;;;;;5119840;27;20042;-74
2022/03/11 06:33:03;;;;;;;23.63;13.88;;;2.80;99.90;;;;;;5125974;27;20544;-74
2022/03/11 06:35:29;;;;;;;23.58;14.90;;;2.80;99.90;;;;;;5116025;27;20039;-74
2022/03/11 06:37:54;;;;;;;28.70;15.73;;;2.80;99.90;;;;;;5113972;27;20035;-74
2022/03/11 06:40:21;;;;;;;22.17;13.45;;;2.80;99.90;;;;;;5115180;27;20088;-74
2022/03/11 06:42:48;;;;;;;24.27;14.82;;;2.80;99.90;;;;;;5115242;27;20185;-74
2022/03/11 06:45:15;;;;;;;24.73;15.57;;;2.80;99.90;;;;;;5116058;27;20051;-75
2022/03/11 06:47:42;;;;;;;22.48;13.18;;;2.80;99.90;;;;;;5113790;27;20048;-74
2022/03/11 06:50:08;;;;;;;24.50;14.95;;;2.90;99.90;;;;;;5115666;27;20043;-74
2022/03/11 06:52:34;;;;;;;23.90;14.82;;;2.90;99.90;;;;;;5108070;28;20055;-74
2022/03/11 06:55:01;;;;;;;24.55;15.60;;;3.00;99.90;;;;;;5112562;28;20040;-74
2022/03/11 06:57:27;;;;;;;29.33;17.27;;;2.90;99.90;;;;;;5095055;28;20079;-75
2022/03/11 06:59:52;;;;;;;22.40;14.40;;;2.90;99.90;;;;;;5111995;28;20078;-75
2022/03/11 07:02:18;;;;;;;22.88;15.05;;;3.00;99.90;;;;;;5101233;27;20040;-74
2022/03/11 07:04:44;;;;;;;25.42;15.93;;;3.00;99.90;;;;;;5109857;28;20061;-73
2022/03/11 07:07:10;;;;;;;25.45;14.20;;;2.90;99.90;;;;;;5111754;28;20046;-74
2022/03/11 07:09:36;;;;;;;21.55;14.13;;;3.00;99.90;;;;;;5094739;28;20143;-74
2022/03/11 07:12:06;;;;;;;23.73;15.80;;;3.00;99.90;;;;;;5095844;28;20512;-77
2022/03/11 07:14:35;;;;;;;28.95;16.23;;;3.10;99.90;;;;;;5074484;28;20084;-74
2022/03/11 07:17:07;;;;;;;22.40;15.20;;;3.10;99.90;;;;;;5085282;28;20504;-75
2022/03/11 07:19:33;;;;;;;25.67;16.50;;;3.10;99.90;;;;;;5146729;27;20525;-74
2022/03/11 07:22:04;;;;;;;26.95;16.40;;;3.10;99.90;;;;;;5094029;28;20402;-75
2022/03/11 07:24:31;;;;;;;25.27;15.15;;;3.20;99.90;;;;;;5074627;28;20440;-75
2022/03/11 07:26:57;;;;;;;26.08;16.50;;;3.20;99.90;;;;;;5101864;28;20406;-74
2022/03/11 07:29:23;;;;;;;25.90;16.73;;;3.30;99.90;;;;;;5094679;28;20518;-75
2022/03/11 07:31:49;;;;;;;26.50;16.58;;;3.30;99.90;;;;;;5090003;28;20443;-74
2022/03/11 07:34:16;;;;;;;27.55;17.80;;;3.40;99.90;;;;;;5110873;28;20044;-75
2022/03/11 07:36:43;;;;;;;25.08;15.57;;;3.40;99.90;;;;;;5120982;27;20129;-75
2022/03/11 07:39:11;;;;;;;24.48;15.63;;;3.40;99.90;;;;;;5115105;27;20045;-74
2022/03/11 07:41:38;;;;;;;22.63;14.50;;;3.60;99.90;;;;;;5113065;27;20517;-74
2022/03/11 07:44:04;;;;;;;29.02;15.73;;;3.60;99.90;;;;;;5122538;27;20043;-75
2022/03/11 07:46:31;;;;;;;22.55;15.77;;;3.70;99.90;;;;;;5111090;28;20123;-74
2022/03/11 07:48:57;;;;;;;28.10;16.67;;;3.70;99.90;;;;;;5099559;27;20326;-75
2022/03/11 07:51:27;;;;;;;25.42;15.50;;;3.80;99.90;;;;;;5114363;27;20035;-74
2022/03/11 07:53:52;;;;;;;24.52;15.70;;;3.90;99.90;;;;;;5112882;27;20031;-74
2022/03/11 07:56:18;;;;;;;23.52;14.95;;;4.00;99.90;;;;;;5125403;27;20047;-75
2022/03/11 07:58:46;;;;;;;26.52;16.60;;;4.00;99.90;;;;;;5094029;28;20074;-76
2022/03/11 08:01:15;;;;;;;24.73;16.55;;;4.10;99.90;;;;;;5093557;28;20032;-76
2022/03/11 08:03:44;;;;;;;27.77;16.63;;;4.10;99.90;;;;;;5100864;27;20058;-75
2022/03/11 08:06:10;;;;;;;22.13;13.90;;;4.20;99.90;;;;;;5114580;27;20084;-75
2022/03/11 08:08:39;;;;;;;27.20;15.93;;;4.20;99.90;;;;;;5096656;28;20505;-76
2022/03/11 08:11:06;;;;;;;24.65;16.40;;;4.30;99.90;;;;;;5094264;28;20130;-76
2022/03/11 08:13:33;;;;;;;24.75;16.02;;;4.40;99.90;;;;;;5093817;28;20035;-76
2022/03/11 08:16:06;;;;;;;24.27;16.15;;;4.40;99.90;;;;;;5100215;27;20039;-76
2022/03/11 08:18:32;;;;;;;;;;;4.50;99.90;;;;;;5114564;27;20126;-75
2022/03/11 08:20:58;;;;;;;22.55;15.60;;;4.50;99.90;;;;;;5109924;28;19959;-76
2022/03/11 08:23:24;;;;;;;24.90;16.08;;;4.60;99.90;;;;;;5111715;28;20039;-75
2022/03/11 08:25:51;;;;;;;26.15;15.82;;;4.70;99.90;;;;;;5099662;28;20036;-76
2022/03/11 08:31:56;;;;;;;25.25;16.45;;;4.80;99.90;;;;;;5125303;27;20494;-77
2022/03/11 08:34:58;;;;;;;;;;;;;;;;;;;;;
2022/03/11 08:37:39;;;;;;;24.92;16.30;;;5.10;99.60;;;;;;5107833;22;20380;-77
2022/03/11 08:40:07;;;;;;;24.92;16.60;;;5.20;99.00;;;;;;5027337;28;20040;-76
2022/03/11 08:42:34;;;;;;;23.77;14.55;;;5.30;99.10;;;;;;5034045;28;20466;-76
2022/03/11 08:45:16;;;;;;;26.27;17.27;;;5.40;98.30;;;;;;5050397;28;20258;-75
2022/03/11 08:48:14;;;;;;;23.67;16.02;;;5.60;98.20;;;;;;5037502;28;20036;-75
2022/03/11 08:50:39;;;;;;;23.35;15.15;;;5.60;97.40;;;;;;5053416;28;20044;-75
2022/03/11 08:53:22;;;;;;;24.42;15.95;;;5.70;96.80;;;;;;5028036;28;20122;-74
2022/03/11 08:55:51;;;;;;;24.42;16.48;;;5.70;95.90;;;;;;5040345;28;20044;-75
2022/03/11 08:58:25;;;;;;;25.33;16.13;;;5.90;96.00;;;;;;5051715;28;20044;-75
2022/03/11 09:00:56;;;;;;;26.20;15.80;;;6.10;95.70;;;;;;5019230;28;20045;-75
2022/03/11 09:03:28;;;;;;;25.73;16.33;;;6.20;95.20;;;;;;5034924;28;20048;-75
2022/03/11 09:06:00;;;;;;;22.25;15.73;;;6.30;95.40;;;;;;5018249;28;20120;-75
2022/03/11 09:08:51;;;;;;;23.33;15.27;;;6.50;92.70;;;;;;5018600;28;20505;-75
2022/03/11 09:11:25;;;;;;;;;;;6.70;93.10;;;;;;5019327;28;20543;-75
2022/03/11 09:14:00;;;;;;;24.65;15.10;;;6.80;90.30;;;;;;5052379;28;19968;-75
2022/03/11 09:16:31;;;;;;;21.73;14.80;;;7.10;91.00;;;;;;5021068;28;20051;-75
2022/03/11 09:19:11;;;;;;;24.23;15.15;;;8.20;90.70;;;;;;5021207;28;20105;-75
2022/03/11 09:21:43;;;;;;;21.55;14.15;;;9.60;77.80;;;;;;5019922;28;20049;-75
2022/03/11 09:24:13;;;;;;;22.48;14.63;;;10.60;82.30;;;;;;5020833;28;20513;-75
2022/03/11 09:26:49;;;;;;;20.77;14.88;;;11.40;75.70;;;;;;5019103;28;20053;-75
2022/03/11 09:29:25;;;;;;;20.98;15.82;;;12.00;62.30;;;;;;5020701;28;20399;-75
2022/03/11 09:32:00;;;;;;;20.35;14.73;;;12.20;61.40;;;;;;5020941;28;20182;-75
2022/03/11 09:34:40;;;;;;;17.92;14.23;;;12.60;59.80;;;;;;5040672;28;20037;-76
2022/03/11 09:37:23;;;;;;;20.38;14.68;;;13.10;60.30;;;;;;5039735;28;20036;-75
2022/03/11 09:39:54;;;;;;;19.27;14.75;;;13.50;58.50;;;;;;5032119;28;20071;-76
2022/03/11 09:42:31;;;;;;;21.38;14.70;;;14.10;59.40;;;;;;5019780;28;20049;-76
2022/03/11 09:45:09;;;;;;;20.02;14.80;;;14.10;50.80;;;;;;5020199;28;20419;-75
2022/03/11 09:47:42;;;;;;;23.45;14.77;;;14.10;51.70;;;;;;5019625;28;20414;-75
2022/03/11 09:50:17;;;;;;;19.63;14.55;;;14.40;55.30;;;;;;5018396;28;20041;-76
2022/03/11 09:52:55;;;;;;;21.70;15.35;;;14.50;52.30;;;;;;5020177;28;20076;-76
2022/03/11 09:55:29;;;;;;;17.65;14.20;;;14.40;52.10;;;;;;5035895;28;20547;-76
2022/03/11 09:57:58;;;;;;;17.40;14.18;;;14.30;52.00;;;;;;5018353;28;20076;-75
2022/03/11 10:00:33;;;;;;;19.60;15.02;;;14.50;51.00;;;;;;5020259;28;20109;-76
2022/03/11 10:03:10;;;;;;;19.45;14.85;;;14.60;52.90;;;;;;5022672;28;20062;-76
2022/03/11 10:06:05;;;;;;;19.05;14.98;;;14.90;50.70;;;;;;5039708;28;20037;-76
2022/03/11 10:08:50;;;;;;;17.65;14.50;;;15.10;50.30;;;;;;5039309;28;20135;-76
2022/03/11 10:11:30;;;;;;;18.45;14.68;;;15.20;47.60;;;;;;5037995;28;20040;-76
2022/03/11 10:14:13;;;;;;;21.17;15.30;;;15.40;49.40;;;;;;5019205;28;20041;-76
2022/03/11 10:16:53;;;;;;;17.73;14.57;;;15.60;48.10;;;;;;5035907;28;20037;-76
2022/03/11 10:19:29;;;;;;;20.05;15.23;;;15.80;50.00;;;;;;5019113;28;20128;-75
2022/03/11 10:22:04;;;;;;;20.83;14.27;;;16.20;50.10;;;;;;5019446;28;20507;-76
2022/03/11 10:24:56;;;;;;;19.88;14.88;;;16.60;46.70;;;;;;5018992;28;20061;-76
2022/03/11 10:27:33;;;;;;;17.67;14.65;;;16.50;45.90;;;;;;5032082;28;20071;-76
2022/03/11 10:30:27;;;;;;;18.77;14.93;;;16.50;46.90;;;;;;5039603;28;20037;-76
2022/03/11 10:33:04;;;;;;;20.48;14.57;;;16.60;45.40;;;;;;5038492;28;20066;-76
2022/03/11 10:35:52;;;;;;;19.17;15.13;;;16.50;46.10;;;;;;5038632;28;20076;-76
2022/03/11 10:38:36;;;;;;;19.92;14.57;;;16.50;46.50;;;;;;5038292;28;20128;-75
2022/03/11 10:41:11;;;;;;;18.63;14.40;;;16.50;46.50;;;;;;5033433;28;20036;-75
2022/03/11 10:44:12;;;;;;;21.60;15.20;;;16.60;46.00;;;;;;5019383;28;20032;-75
2022/03/11 10:46:43;;;;;;;19.20;14.85;;;16.80;45.10;;;;;;5018552;28;20521;-75
2022/03/11 10:49:31;;;;;;;18.80;15.23;;;16.90;45.20;;;;;;5018600;28;20423;-75
2022/03/11 10:52:01;;;;;;;17.95;15.02;;;17.00;44.60;;;;;;5018609;28;20123;-75
2022/03/11 10:54:43;;;;;;;19.98;15.02;;;16.90;44.20;;;;;;5020153;28;20064;-75
2022/03/11 10:57:13;;;;;;;19.23;15.35;;;17.20;44.40;;;;;;5037490;28;20403;-75
2022/03/11 10:59:39;;;;;;;16.73;13.82;;;17.20;44.60;;;;;;5038089;28;20068;-75
2022/03/11 11:02:09;;;;;;;18.17;15.38;;;17.40;44.80;;;;;;5031843;28;20598;-75
2022/03/11 11:04:42;;;;;;;17.38;15.25;;;17.70;44.50;;;;;;5016126;28;20577;-75
2022/03/11 11:07:21;;;;;;;19.70;15.52;;;18.00;44.20;;;;;;5030491;22;20041;-75
2022/03/11 11:09:56;;;;;;;20.00;15.52;;;18.10;43.60;;;;;;5069563;28;20044;-75
2022/03/11 11:12:21;;;;;;;17.17;14.48;;;18.10;43.60;;;;;;5064551;28;20042;-73
2022/03/11 11:14:47;;;;;;;23.75;16.10;;;18.20;43.30;;;;;;5071015;28;20485;-73
2022/03/11 11:17:21;;;;;;;19.98;16.08;;;18.10;41.30;;;;;;5091503;28;20036;-73
2022/03/11 11:19:51;;;;;;;21.02;16.10;;;18.30;41.10;;;;;;5074685;28;20036;-74
2022/03/11 11:22:22;;;;;;;19.35;16.10;;;18.00;43.00;;;;;;5075459;28;20490;-75
2022/03/11 11:24:52;;;;;;;18.90;15.73;;;18.10;43.40;;;;;;5073705;28;20039;-74
2022/03/11 11:27:20;;;;;;;18.48;15.93;;;18.30;43.50;;;;;;5086572;28;20044;-74
2022/03/11 11:29:49;;;;;;;18.83;15.10;;;18.60;43.10;;;;;;5090138;28;20040;-73
2022/03/11 11:32:22;;;;;;;22.45;16.70;;;18.90;41.80;;;;;;5064236;28;20039;-76
2022/03/11 11:34:48;;;;;;;20.15;16.25;;;18.90;41.40;;;;;;5065551;28;20490;-74
2022/03/11 11:37:39;;;;;;;18.90;16.23;;;18.80;42.10;;;;;;5091055;28;20206;-74
2022/03/11 11:40:32;;;;;;;19.48;15.77;;;19.00;41.80;;;;;;5034453;28;20041;-74
2022/03/11 11:43:26;;;;;;;20.10;15.73;;;19.20;40.90;;;;;;5037431;28;20056;-75
2022/03/11 11:46:10;;;;;;;;;;;19.40;40.50;;;;;;5069069;28;20032;-75
2022/03/11 11:52:28;;;;;;;19.35;15.52;;;19.40;39.70;;;;;;5028102;28;20048;-77
2022/03/11 11:55:22;;;;;;;17.60;15.70;;;19.10;40.40;;;;;;5034264;28;20507;-76
2022/03/11 11:57:52;;;;;;;21.73;15.10;;;19.10;41.40;;;;;;5052981;28;20041;-75
2022/03/11 12:00:34;;;;;;;20.15;15.50;;;19.30;40.50;;;;;;5065513;28;20043;-75
2022/03/11 12:03:10;;;;;;;21.05;15.90;;;19.40;39.60;;;;;;5085925;28;20052;-76
2022/03/11 12:05:50;;;;;;;17.60;14.85;;;19.40;40.50;;;;;;5053352;28;20043;-75
2022/03/11 12:08:50;;;;;;;19.08;15.63;;;19.70;41.30;;;;;;5054423;28;20499;-76
2022/03/11 12:11:40;;;;;;;19.92;15.50;;;19.90;40.40;;;;;;5055591;28;20036;-77
2022/03/11 12:14:09;;;;;;;21.70;16.30;;;19.80;39.60;;;;;;5088989;28;20047;-78
2022/03/11 12:17:22;;;;;;;18.60;14.82;;;19.60;39.90;;;;;;5054803;28;20074;-76
2022/03/11 12:20:49;;;;;;;22.67;17.67;;;19.70;38.50;;;;;;5073841;28;20422;-75
2022/03/11 12:23:18;;;;;;;19.50;16.38;;;19.40;40.90;;;;;;5010074;28;20050;-75
2022/03/11 12:25:46;;;;;;;19.48;15.85;;;19.60;40.20;;;;;;5024746;28;20120;-76
2022/03/11 12:28:17;;;;;;;21.30;17.05;;;19.60;40.00;;;;;;5058129;28;20051;-73
2022/03/11 12:30:49;;;;;;;20.08;16.33;;;19.70;40.10;;;;;;5069892;28;20068;-74
2022/03/11 12:33:32;;;;;;;18.70;15.43;;;19.80;40.20;;;;;;5082514;28;20045;-75
2022/03/11 12:36:08;;;;;;;18.52;15.57;;;19.80;40.00;;;;;;5068635;28;20508;-76
2022/03/11 12:38:42;;;;;;;20.40;17.15;;;19.80;40.00;;;;;;5065173;28;20518;-76
2022/03/11 12:41:18;;;;;;;19.98;17.10;;;19.90;40.20;;;;;;5054638;28;20093;-75
2022/03/11 12:43:53;;;;;;;22.17;16.73;;;20.00;39.80;;;;;;5084966;28;20046;-75
2022/03/11 12:46:21;;;;;;;20.20;16.30;;;20.00;39.70;;;;;;5062888;28;20197;-75
2022/03/11 12:49:02;;;;;;;20.00;16.42;;;19.90;39.80;;;;;;5084936;28;20119;-75
2022/03/11 12:51:32;;;;;;;20.30;16.38;;;19.80;39.20;;;;;;5070137;28;20056;-75
2022/03/11 12:54:31;;;;;;;19.58;16.58;;;19.70;39.70;;;;;;5085562;28;20044;-75
2022/03/11 12:57:08;;;;;;;21.85;16.15;;;19.60;39.40;;;;;;5085734;28;20036;-75
2022/03/11 12:59:37;;;;;;;20.42;14.82;;;19.90;40.20;;;;;;5086827;28;20028;-75